createdAt,value
2019-06-26T00:02:12.332Z,20.86
2019-06-26T00:04:40.010Z,20.84
2019-06-26T00:07:07.523Z,20.81
2019-06-26T00:09:35.050Z,20.78
2019-06-26T00:12:04.432Z,20.80
2019-06-26T00:14:31.946Z,20.74
2019-06-26T00:17:07.042Z,20.70
2019-06-26T00:19:35.066Z,20.66
2019-06-26T00:22:02.609Z,20.63
2019-06-26T00:24:30.154Z,20.61
2019-06-26T00:26:57.698Z,20.59
2019-06-26T00:29:25.790Z,20.56
2019-06-26T00:31:53.359Z,20.52
2019-06-26T00:34:20.928Z,20.50
2019-06-26T00:36:48.440Z,20.48
2019-06-26T00:39:16.011Z,20.47
2019-06-26T00:41:43.542Z,20.39
2019-06-26T00:44:11.104Z,20.44
2019-06-26T00:46:38.686Z,20.42
2019-06-26T00:49:06.947Z,20.41
2019-06-26T00:51:34.952Z,20.39
2019-06-26T00:54:02.603Z,20.36
2019-06-26T00:56:30.264Z,20.33
2019-06-26T00:58:57.879Z,20.31
2019-06-26T01:01:25.465Z,20.27
2019-06-26T01:03:55.690Z,20.24
2019-06-26T01:06:41.690Z,20.09
2019-06-26T01:09:09.429Z,20.21
2019-06-26T01:11:37.049Z,20.19
2019-06-26T01:14:04.726Z,20.17
2019-06-26T01:16:32.348Z,20.14
2019-06-26T01:18:59.925Z,20.14
2019-06-26T01:21:28.277Z,20.11
2019-06-26T01:23:56.011Z,20.09
2019-06-26T01:26:23.585Z,20.06
2019-06-26T01:28:51.169Z,20.04
2019-06-26T01:31:18.812Z,20.01
2019-06-26T01:33:46.489Z,19.86
2019-06-26T01:36:14.462Z,19.93
2019-06-26T01:38:42.011Z,19.92
2019-06-26T01:41:09.677Z,19.90
2019-06-26T01:43:37.282Z,19.89
2019-06-26T01:46:04.903Z,19.87
2019-06-26T01:48:32.442Z,19.85
2019-06-26T01:50:59.998Z,19.82
2019-06-26T01:53:28.740Z,19.81
2019-06-26T01:55:56.356Z,19.78
2019-06-26T01:58:23.867Z,19.74
2019-06-26T02:00:51.583Z,19.72
2019-06-26T02:03:19.072Z,19.69
2019-06-26T02:05:47.975Z,19.66
2019-06-26T02:08:16.275Z,19.63
2019-06-26T02:10:43.924Z,19.61
2019-06-26T02:13:11.429Z,19.58
2019-06-26T02:15:39.055Z,19.56
2019-06-26T02:18:26.226Z,19.57
2019-06-26T02:20:53.849Z,19.53
2019-06-26T02:23:21.355Z,19.50
2019-06-26T02:25:48.936Z,19.49
2019-06-26T02:28:16.487Z,19.48
2019-06-26T02:30:44.093Z,19.48
2019-06-26T02:33:11.717Z,19.48
2019-06-26T02:35:39.262Z,19.46
2019-06-26T02:38:06.791Z,19.41
2019-06-26T02:40:34.350Z,19.37
2019-06-26T02:43:06.507Z,19.35
2019-06-26T02:45:31.469Z,19.34
2019-06-26T02:47:58.979Z,19.31
2019-06-26T02:50:26.594Z,19.30
2019-06-26T02:52:54.120Z,19.30
2019-06-26T02:55:21.650Z,19.27
2019-06-26T02:57:49.249Z,19.25
2019-06-26T03:00:16.788Z,19.22
2019-06-26T03:02:44.273Z,19.18
2019-06-26T03:05:11.854Z,19.16
2019-06-26T03:07:39.387Z,19.16
2019-06-26T03:10:07.149Z,19.14
2019-06-26T03:12:34.671Z,19.12
2019-06-26T03:15:08.911Z,19.12
2019-06-26T03:17:31.722Z,19.04
2019-06-26T03:19:59.273Z,19.11
2019-06-26T03:22:26.801Z,19.12
2019-06-26T03:24:54.374Z,18.99
2019-06-26T03:27:22.230Z,19.09
2019-06-26T03:29:49.849Z,19.10
2019-06-26T03:32:17.451Z,19.10
2019-06-26T03:34:46.556Z,19.10
2019-06-26T03:37:14.160Z,19.11
2019-06-26T03:39:41.667Z,19.12
2019-06-26T03:42:09.255Z,19.15
2019-06-26T03:44:36.806Z,19.17
2019-06-26T03:47:04.420Z,19.20
2019-06-26T03:49:32.005Z,19.22
2019-06-26T03:51:59.598Z,19.23
2019-06-26T03:54:27.261Z,19.18
2019-06-26T03:56:54.847Z,19.30
2019-06-26T03:59:22.454Z,19.33
2019-06-26T04:01:49.994Z,19.37
2019-06-26T04:04:17.548Z,19.41
2019-06-26T04:06:45.110Z,19.46
2019-06-26T04:09:12.708Z,19.45
2019-06-26T04:11:40.678Z,19.57
2019-06-26T04:14:08.277Z,19.64
2019-06-26T04:16:36.127Z,19.70
2019-06-26T04:19:03.745Z,19.74
2019-06-26T04:21:31.319Z,19.81
2019-06-26T04:24:00.214Z,19.90
2019-06-26T04:26:27.759Z,19.95
2019-06-26T04:28:55.386Z,20.01
2019-06-26T04:31:22.998Z,20.06
2019-06-26T04:33:50.544Z,20.07
2019-06-26T04:36:18.144Z,20.20
2019-06-26T04:38:45.707Z,20.27
2019-06-26T04:41:13.255Z,20.41
2019-06-26T04:43:40.855Z,20.48
2019-06-26T04:46:08.367Z,20.57
2019-06-26T04:48:35.965Z,20.67
2019-06-26T04:51:03.625Z,20.71
2019-06-26T04:53:31.674Z,20.79
2019-06-26T04:55:59.200Z,20.84
2019-06-26T04:58:26.793Z,20.93
2019-06-26T05:00:54.394Z,21.01
2019-06-26T05:03:22.299Z,21.05
2019-06-26T05:05:49.896Z,21.07
2019-06-26T05:08:17.506Z,21.22
2019-06-26T05:10:46.051Z,21.36
2019-06-26T05:13:13.605Z,21.51
2019-06-26T05:15:42.325Z,21.58
2019-06-26T05:18:09.873Z,21.64
2019-06-26T05:20:37.409Z,21.75
2019-06-26T05:23:04.985Z,21.85
2019-06-26T05:25:32.522Z,21.94
2019-06-26T05:28:00.105Z,21.97
2019-06-26T05:30:28.730Z,22.12
2019-06-26T05:32:56.351Z,22.21
2019-06-26T05:35:23.881Z,22.31
2019-06-26T05:37:51.460Z,22.39
2019-06-26T05:40:19.120Z,22.44
2019-06-26T05:42:46.697Z,22.57
2019-06-26T05:45:14.637Z,22.64
2019-06-26T05:47:42.254Z,22.73
2019-06-26T05:50:10.848Z,22.79
2019-06-26T05:52:42.225Z,22.79
2019-06-26T05:55:08.013Z,22.99
2019-06-26T05:57:35.654Z,23.13
2019-06-26T06:00:04.258Z,23.35
2019-06-26T06:02:31.862Z,23.48
2019-06-26T06:04:59.436Z,23.51
2019-06-26T06:07:27.014Z,23.70
2019-06-26T06:09:54.689Z,23.77
2019-06-26T06:12:22.383Z,23.90
2019-06-26T06:14:50.069Z,23.90
2019-06-26T06:17:17.641Z,24.01
2019-06-26T06:19:45.785Z,24.13
2019-06-26T06:22:13.419Z,24.20
2019-06-26T06:24:41.100Z,24.36
2019-06-26T06:27:08.701Z,24.44
2019-06-26T06:29:36.378Z,24.62
2019-06-26T06:32:04.142Z,24.82
2019-06-26T06:34:31.776Z,24.93
2019-06-26T06:37:00.451Z,25.05
2019-06-26T06:39:28.043Z,25.20
2019-06-26T06:41:55.657Z,25.45
2019-06-26T06:44:23.474Z,25.60
2019-06-26T06:47:03.413Z,25.73
2019-06-26T06:49:20.680Z,25.80
2019-06-26T06:51:48.703Z,26.07
2019-06-26T06:54:16.362Z,26.30
2019-06-26T06:56:44.028Z,26.46
2019-06-26T06:59:11.599Z,26.48
2019-06-26T07:01:39.140Z,26.57
2019-06-26T07:04:06.735Z,26.77
2019-06-26T07:06:34.377Z,26.75
2019-06-26T07:09:01.931Z,26.90
2019-06-26T07:11:30.811Z,26.90
2019-06-26T07:13:58.372Z,27.01
2019-06-26T07:16:25.958Z,27.14
2019-06-26T07:18:53.606Z,27.32
2019-06-26T07:21:21.185Z,27.52
2019-06-26T07:23:48.851Z,27.60
2019-06-26T07:26:16.408Z,27.72
2019-06-26T07:28:44.012Z,27.85
2019-06-26T07:31:11.583Z,27.92
2019-06-26T07:33:39.880Z,28.10
2019-06-26T07:36:07.460Z,28.30
2019-06-26T07:38:35.131Z,28.36
2019-06-26T07:41:02.977Z,28.50
2019-06-26T07:43:30.880Z,28.71
2019-06-26T07:45:58.431Z,28.76
2019-06-26T07:48:26.095Z,28.90
2019-06-26T07:50:53.709Z,29.00
2019-06-26T07:53:21.414Z,29.20
2019-06-26T07:55:49.047Z,29.38
2019-06-26T07:58:16.536Z,29.37
2019-06-26T08:00:44.152Z,29.52
2019-06-26T08:03:11.717Z,29.59
2019-06-26T08:05:42.620Z,29.66
2019-06-26T08:08:08.725Z,29.72
2019-06-26T08:10:36.323Z,29.92
2019-06-26T08:13:03.843Z,29.97
2019-06-26T08:15:31.420Z,29.80
2019-06-26T08:18:01.376Z,29.91
2019-06-26T08:20:28.651Z,29.76
2019-06-26T08:22:56.187Z,29.76
2019-06-26T08:25:23.754Z,29.79
2019-06-26T08:27:51.339Z,29.75
2019-06-26T08:30:19.201Z,29.98
2019-06-26T08:32:46.774Z,30.17
2019-06-26T08:35:15.372Z,30.23
2019-06-26T08:37:43.161Z,30.42
2019-06-26T08:40:12.285Z,30.44
2019-06-26T08:42:39.849Z,30.47
2019-06-26T08:45:08.716Z,30.64
2019-06-26T08:47:36.285Z,30.76
2019-06-26T08:50:04.212Z,30.88
2019-06-26T08:52:31.876Z,30.90
2019-06-26T08:54:59.493Z,30.87
2019-06-26T08:57:27.073Z,31.20
2019-06-26T08:59:54.976Z,31.51
2019-06-26T09:02:22.707Z,31.58
2019-06-26T09:04:50.429Z,31.70
2019-06-26T09:07:19.438Z,31.76
2019-06-26T09:09:47.163Z,32.07
2019-06-26T09:12:14.799Z,32.09
2019-06-26T09:14:42.778Z,32.36
2019-06-26T09:17:10.377Z,32.45
2019-06-26T09:19:39.003Z,32.38
2019-06-26T09:22:08.539Z,32.64
2019-06-26T09:24:36.122Z,32.27
2019-06-26T09:27:03.778Z,32.44
2019-06-26T09:29:31.365Z,32.87
2019-06-26T09:31:58.938Z,33.05
2019-06-26T09:34:26.641Z,33.14
2019-06-26T09:36:54.209Z,33.20
2019-06-26T09:39:21.821Z,33.37
2019-06-26T09:41:49.817Z,33.02
2019-06-26T09:44:17.407Z,33.33
2019-06-26T09:46:44.945Z,33.63
2019-06-26T09:49:12.608Z,33.75
2019-06-26T09:51:40.126Z,33.87
2019-06-26T09:54:07.829Z,33.96
2019-06-26T09:56:35.812Z,33.97
2019-06-26T09:59:03.589Z,33.71
2019-06-26T10:01:32.156Z,33.64
2019-06-26T10:03:59.840Z,33.87
2019-06-26T10:06:27.701Z,34.13
2019-06-26T10:08:55.377Z,34.46
2019-06-26T10:11:22.991Z,34.74
2019-06-26T10:13:50.726Z,34.95
2019-06-26T10:16:18.581Z,35.03
2019-06-26T10:18:46.213Z,35.25
2019-06-26T10:21:13.766Z,35.12
2019-06-26T10:23:41.374Z,35.13
2019-06-26T10:26:08.961Z,35.27
2019-06-26T10:28:36.684Z,35.17
2019-06-26T10:31:04.273Z,35.30
2019-06-26T10:33:31.944Z,35.26
2019-06-26T10:35:59.875Z,35.56
2019-06-26T10:38:27.472Z,35.43
2019-06-26T10:40:55.144Z,35.27
2019-06-26T10:43:22.736Z,35.31
2019-06-26T10:45:50.397Z,35.31
2019-06-26T10:48:17.963Z,35.59
2019-06-26T10:50:51.037Z,35.74
2019-06-26T10:53:15.009Z,35.30
2019-06-26T10:55:42.679Z,35.72
2019-06-26T10:58:10.275Z,35.87
2019-06-26T11:00:38.381Z,35.71
2019-06-26T11:03:05.964Z,35.60
2019-06-26T11:05:33.727Z,35.95
2019-06-26T11:08:01.310Z,35.33
2019-06-26T11:10:28.925Z,35.99
2019-06-26T11:12:56.538Z,35.80
2019-06-26T11:15:25.187Z,35.98
2019-06-26T11:17:52.943Z,36.11
2019-06-26T11:20:20.718Z,36.26
2019-06-26T11:22:48.443Z,36.34
2019-06-26T11:25:18.989Z,36.50
2019-06-26T11:27:46.777Z,36.20
2019-06-26T11:30:15.059Z,36.39
2019-06-26T11:32:42.954Z,36.29
2019-06-26T11:35:10.806Z,36.26
2019-06-26T11:37:38.489Z,36.45
2019-06-26T11:40:06.473Z,36.13
2019-06-26T11:42:34.186Z,36.66
2019-06-26T11:45:01.955Z,37.07
2019-06-26T11:47:29.766Z,36.88
2019-06-26T11:50:00.330Z,36.91
2019-06-26T11:52:27.244Z,36.17
2019-06-26T11:55:02.780Z,36.71
2019-06-26T11:57:24.410Z,36.46
2019-06-26T11:59:52.402Z,36.01
2019-06-26T12:02:20.183Z,36.39
2019-06-26T12:04:47.913Z,36.34
2019-06-26T12:07:15.561Z,36.32
2019-06-26T12:09:43.271Z,35.83
2019-06-26T12:12:11.005Z,35.91
2019-06-26T12:14:38.682Z,35.91
2019-06-26T12:17:06.347Z,35.92
2019-06-26T12:19:33.987Z,35.92
2019-06-26T12:22:01.629Z,36.12
2019-06-26T12:24:29.248Z,36.06
2019-06-26T12:26:56.834Z,35.87
2019-06-26T12:29:24.412Z,35.93
2019-06-26T12:31:52.041Z,36.00
2019-06-26T12:34:19.689Z,36.00
2019-06-26T12:36:47.368Z,35.92
2019-06-26T12:39:15.006Z,36.19
2019-06-26T12:41:42.555Z,35.98
2019-06-26T12:44:10.195Z,36.02
2019-06-26T12:46:37.820Z,36.38
2019-06-26T12:49:05.575Z,36.24
2019-06-26T12:51:33.162Z,36.26
2019-06-26T12:54:00.823Z,35.82
2019-06-26T12:56:28.902Z,35.63
2019-06-26T12:58:59.818Z,35.52
2019-06-26T13:01:26.142Z,35.31
2019-06-26T13:03:53.805Z,35.51
2019-06-26T13:06:21.417Z,35.58
2019-06-26T13:08:49.160Z,35.71
2019-06-26T13:11:16.735Z,35.53
2019-06-26T13:13:58.370Z,35.47
2019-06-26T13:16:13.899Z,35.31
2019-06-26T13:18:41.532Z,35.26
2019-06-26T13:21:09.231Z,35.15
2019-06-26T13:23:37.069Z,34.96
2019-06-26T13:26:04.824Z,34.90
2019-06-26T13:28:32.476Z,34.71
2019-06-26T13:31:00.248Z,34.95
2019-06-26T13:33:27.903Z,34.92
2019-06-26T13:35:55.561Z,34.60
2019-06-26T13:38:26.863Z,34.63
2019-06-26T13:40:52.866Z,34.69
2019-06-26T13:43:20.574Z,34.63
2019-06-26T13:45:48.251Z,34.54
2019-06-26T13:48:15.881Z,34.44
2019-06-26T13:50:43.577Z,34.59
2019-06-26T13:53:12.278Z,34.62
2019-06-26T13:55:40.373Z,34.53
2019-06-26T13:58:08.590Z,34.47
2019-06-26T14:00:36.222Z,34.16
2019-06-26T14:03:03.880Z,34.21
2019-06-26T14:05:32.181Z,34.14
2019-06-26T14:07:59.777Z,34.26
2019-06-26T14:10:27.523Z,34.23
2019-06-26T14:12:55.062Z,34.16
2019-06-26T14:15:22.742Z,33.94
2019-06-26T14:17:50.386Z,33.80
2019-06-26T14:20:18.344Z,33.79
2019-06-26T14:22:46.069Z,34.04
2019-06-26T14:25:13.809Z,34.23
2019-06-26T14:27:41.384Z,34.25
2019-06-26T14:30:09.234Z,34.34
2019-06-26T14:32:37.016Z,34.26
2019-06-26T14:35:04.887Z,34.32
2019-06-26T14:37:32.547Z,34.22
2019-06-26T14:40:00.322Z,34.15
2019-06-26T14:42:27.979Z,34.14
2019-06-26T14:44:55.639Z,33.86
2019-06-26T14:47:23.289Z,33.82
2019-06-26T14:49:52.219Z,33.82
2019-06-26T14:52:20.013Z,33.84
2019-06-26T14:54:47.705Z,33.75
2019-06-26T14:57:15.410Z,33.78
2019-06-26T14:59:43.068Z,33.75
2019-06-26T15:02:10.761Z,33.68
2019-06-26T15:04:38.500Z,33.71
2019-06-26T15:07:06.278Z,33.70
2019-06-26T15:09:34.049Z,33.57
2019-06-26T15:12:02.227Z,33.34
2019-06-26T15:14:29.876Z,33.41
2019-06-26T15:16:57.524Z,33.45
2019-06-26T15:19:25.089Z,33.35
2019-06-26T15:21:58.534Z,33.12
2019-06-26T15:24:22.397Z,33.06
2019-06-26T15:26:50.102Z,33.10
2019-06-26T15:29:17.728Z,33.01
2019-06-26T15:31:45.493Z,33.03
2019-06-26T15:34:13.161Z,32.90
2019-06-26T15:36:40.852Z,32.91
2019-06-26T15:39:09.660Z,32.78
2019-06-26T15:41:37.378Z,32.67
2019-06-26T15:44:04.931Z,32.55
2019-06-26T15:46:32.606Z,32.53
2019-06-26T15:49:00.187Z,32.47
2019-06-26T15:51:27.877Z,32.35
2019-06-26T15:53:55.527Z,32.33
2019-06-26T15:56:23.210Z,32.35
2019-06-26T15:58:50.779Z,32.43
2019-06-26T16:01:18.491Z,32.41
2019-06-26T16:03:46.075Z,32.29
2019-06-26T16:06:13.713Z,32.26
2019-06-26T16:08:41.348Z,32.32
2019-06-26T16:11:08.994Z,32.30
2019-06-26T16:13:36.659Z,32.22
2019-06-26T16:16:04.496Z,32.22
2019-06-26T16:18:37.388Z,32.24
2019-06-26T16:21:05.118Z,32.19
2019-06-26T16:23:32.787Z,32.09
2019-06-26T16:26:00.431Z,31.97
2019-06-26T16:28:28.143Z,31.93
2019-06-26T16:30:55.886Z,31.72
2019-06-26T16:33:23.446Z,31.68
2019-06-26T16:35:51.382Z,31.78
2019-06-26T16:38:19.032Z,31.76
2019-06-26T16:40:46.706Z,31.75
2019-06-26T16:43:14.272Z,31.67
2019-06-26T16:45:41.878Z,31.61
2019-06-26T16:48:09.527Z,31.58
2019-06-26T16:50:37.239Z,31.54
2019-06-26T16:53:04.996Z,31.49
2019-06-26T16:55:32.718Z,31.45
2019-06-26T16:58:00.375Z,31.35
2019-06-26T17:00:28.056Z,31.34
2019-06-26T17:02:55.768Z,31.35
2019-06-26T17:05:23.367Z,31.36
2019-06-26T17:07:51.014Z,31.27
2019-06-26T17:10:18.878Z,31.15
2019-06-26T17:12:46.518Z,31.20
2019-06-26T17:15:14.107Z,31.09
2019-06-26T17:17:41.728Z,31.11
2019-06-26T17:20:10.550Z,30.99
2019-06-26T17:22:38.355Z,30.91
2019-06-26T17:25:07.041Z,30.91
2019-06-26T17:27:34.847Z,30.87
2019-06-26T17:30:02.629Z,30.77
2019-06-26T17:32:30.675Z,30.70
2019-06-26T17:34:58.335Z,30.66
2019-06-26T17:37:26.010Z,30.54
2019-06-26T17:39:53.620Z,30.56
2019-06-26T17:42:21.338Z,30.45
2019-06-26T17:44:48.938Z,30.38
2019-06-26T17:47:16.549Z,30.30
2019-06-26T17:49:44.276Z,30.25
2019-06-26T17:52:11.942Z,30.24
2019-06-26T17:54:39.540Z,30.14
2019-06-26T17:57:07.147Z,30.01
2019-06-26T17:59:34.693Z,30.02
2019-06-26T18:02:02.568Z,29.80
2019-06-26T18:04:30.264Z,29.80
2019-06-26T18:06:59.146Z,29.68
2019-06-26T18:09:26.880Z,29.60
2019-06-26T18:11:54.603Z,29.51
2019-06-26T18:14:22.209Z,29.62
2019-06-26T18:16:49.799Z,29.47
2019-06-26T18:19:17.396Z,29.38
2019-06-26T18:21:45.097Z,29.30
2019-06-26T18:24:12.870Z,29.25
2019-06-26T18:26:40.516Z,29.13
2019-06-26T18:29:08.642Z,28.98
2019-06-26T18:31:36.316Z,28.85
2019-06-26T18:34:04.040Z,28.75
2019-06-26T18:36:33.585Z,28.68
2019-06-26T18:39:01.208Z,28.57
2019-06-26T18:41:30.649Z,28.47
2019-06-26T18:43:58.487Z,28.31
2019-06-26T18:46:30.706Z,28.20
2019-06-26T18:48:58.295Z,28.09
2019-06-26T18:51:26.449Z,27.99
2019-06-26T18:53:54.762Z,27.72
2019-06-26T18:56:22.985Z,27.70
2019-06-26T18:58:51.049Z,27.66
2019-06-26T19:01:19.121Z,27.68
2019-06-26T19:03:47.085Z,27.63
2019-06-26T19:06:15.250Z,27.51
2019-06-26T19:08:43.465Z,27.41
2019-06-26T19:11:11.612Z,27.25
2019-06-26T19:13:39.465Z,27.31
2019-06-26T19:16:07.342Z,27.25
2019-06-26T19:18:35.502Z,27.15
2019-06-26T19:21:03.477Z,27.02
2019-06-26T19:23:31.463Z,26.86
2019-06-26T19:25:59.418Z,26.68
2019-06-26T19:28:27.442Z,26.64
2019-06-26T19:30:55.661Z,26.59
2019-06-26T19:33:23.725Z,26.48
2019-06-26T19:35:51.974Z,26.38
2019-06-26T19:38:19.878Z,26.34
2019-06-26T19:40:47.912Z,26.26
2019-06-26T19:43:15.959Z,26.20
2019-06-26T19:45:44.031Z,26.12
2019-06-26T19:48:12.074Z,26.07
2019-06-26T19:50:40.409Z,26.01
2019-06-26T19:53:08.524Z,25.98
2019-06-26T19:55:36.459Z,25.93
2019-06-26T19:58:04.349Z,25.84
2019-06-26T20:00:32.247Z,25.72
2019-06-26T20:03:00.095Z,25.65
2019-06-26T20:05:28.202Z,25.58
2019-06-26T20:07:56.115Z,25.50
2019-06-26T20:10:24.229Z,25.43
2019-06-26T20:12:52.255Z,25.38
2019-06-26T20:15:20.310Z,25.38
2019-06-26T20:17:48.568Z,25.23
2019-06-26T20:20:16.613Z,25.23
2019-06-26T20:22:44.709Z,25.14
2019-06-26T20:25:13.056Z,25.05
2019-06-26T20:27:41.128Z,24.99
2019-06-26T20:30:10.026Z,24.97
2019-06-26T20:32:39.177Z,24.94
2019-06-26T20:35:07.289Z,24.92
2019-06-26T20:37:40.932Z,24.92
2019-06-26T20:40:09.681Z,24.90
2019-06-26T20:42:37.889Z,24.82
2019-06-26T20:45:05.986Z,24.77
2019-06-26T20:47:34.095Z,24.71
2019-06-26T20:50:02.077Z,24.66
2019-06-26T20:52:29.705Z,24.64
2019-06-26T20:55:02.056Z,24.64
2019-06-26T20:57:27.023Z,24.59
2019-06-26T20:59:54.849Z,24.54
2019-06-26T21:02:22.774Z,24.38
2019-06-26T21:04:50.777Z,24.45
2019-06-26T21:07:18.729Z,24.40
2019-06-26T21:09:46.533Z,24.33
2019-06-26T21:12:14.651Z,24.36
2019-06-26T21:14:42.501Z,24.31
2019-06-26T21:17:10.558Z,24.23
2019-06-26T21:19:40.035Z,24.17
2019-06-26T21:22:09.130Z,24.13
2019-06-26T21:24:37.101Z,24.09
2019-06-26T21:27:05.229Z,24.06
2019-06-26T21:29:33.246Z,24.04
2019-06-26T21:32:01.381Z,24.04
2019-06-26T21:34:29.415Z,23.97
2019-06-26T21:36:57.239Z,23.94
2019-06-26T21:39:25.107Z,23.92
2019-06-26T21:41:52.816Z,23.96
2019-06-26T21:44:20.923Z,23.91
2019-06-26T21:46:49.248Z,23.85
2019-06-26T21:49:16.792Z,23.78
2019-06-26T21:51:45.788Z,23.78
2019-06-26T21:54:14.488Z,23.64
2019-06-26T21:57:00.939Z,23.67
2019-06-26T21:59:46.965Z,23.59
2019-06-26T22:02:33.086Z,23.56
2019-06-26T22:05:03.911Z,23.48
2019-06-26T22:07:34.720Z,23.47
2019-06-26T22:10:16.269Z,23.43
2019-06-26T22:12:44.138Z,23.40
2019-06-26T22:15:13.090Z,23.35
2019-06-26T22:17:41.218Z,23.31
2019-06-26T22:20:12.571Z,23.29
2019-06-26T22:22:39.606Z,23.29
2019-06-26T22:25:07.850Z,23.30
2019-06-26T22:27:35.945Z,23.23
2019-06-26T22:30:04.026Z,23.17
2019-06-26T22:32:32.118Z,23.16
2019-06-26T22:35:00.358Z,23.12
2019-06-26T22:37:28.594Z,23.06
2019-06-26T22:39:56.595Z,23.06
2019-06-26T22:42:25.676Z,23.06
2019-06-26T22:44:53.232Z,23.01
2019-06-26T22:47:22.049Z,22.92
2019-06-26T22:49:49.679Z,22.86
2019-06-26T22:52:17.229Z,22.86
2019-06-26T22:54:44.969Z,22.80
2019-06-26T22:57:12.527Z,22.80
2019-06-26T22:59:40.150Z,22.81
2019-06-26T23:02:07.738Z,22.73
2019-06-26T23:04:35.415Z,22.73
2019-06-26T23:07:02.972Z,22.71
2019-06-26T23:09:30.651Z,22.60
2019-06-26T23:11:58.215Z,22.63
2019-06-26T23:14:25.819Z,22.71
2019-06-26T23:16:53.352Z,22.64
2019-06-26T23:19:20.915Z,22.58
2019-06-26T23:21:48.568Z,22.55
2019-06-26T23:24:16.257Z,22.55
2019-06-26T23:26:44.189Z,22.56
2019-06-26T23:29:12.295Z,22.50
2019-06-26T23:31:40.646Z,22.45
2019-06-26T23:34:08.898Z,22.41
2019-06-26T23:36:36.743Z,22.39
2019-06-26T23:39:05.148Z,22.36
2019-06-26T23:41:33.206Z,22.38
2019-06-26T23:44:01.250Z,22.37
2019-06-26T23:46:29.352Z,22.35
2019-06-26T23:48:57.400Z,22.30
2019-06-26T23:51:26.263Z,22.28
2019-06-26T23:53:54.171Z,22.24
2019-06-26T23:56:22.246Z,22.23
2019-06-26T23:58:50.422Z,22.26
